Time;durP1;ratioP1;P1;durP2;ratioP2;P2;SDS_P1;SDS_P2;PMS_P1;PMS_P2;Temp;Humidity;BMP_temperature;BMP_pressure;BME280_temperature;BME280_humidity;BME280_pressure;Samples;Min_cycle;Max_cycle;Signal;HPM_P1;HPM_P2
2022/05/01 00:00:31;;;;;;;11.15;7.35;;;;;;;13.27;86.73;100335.88;5145657;27;20069;-74
2022/05/01 00:02:57;;;;;;;13.68;7.60;;;;;;;13.25;86.39;100324.56;5127361;27;20094;-73
2022/05/01 00:05:23;;;;;;;11.02;6.95;;;;;;;13.46;85.04;100328.56;5145026;27;20033;-73
2022/05/01 00:07:49;;;;;;;10.98;6.53;;;;;;;13.36;85.03;100332.22;5145055;27;20336;-73
2022/05/01 00:10:15;;;;;;;12.70;6.88;;;;;;;13.29;85.13;100333.88;5145446;27;20037;-73
2022/05/01 00:12:40;;;;;;;13.38;7.03;;;;;;;13.19;85.04;100322.56;5144626;27;20301;-73
2022/05/01 00:15:07;;;;;;;9.77;6.53;;;;;;;13.26;84.36;100336.88;5144759;27;20038;-73
2022/05/01 00:17:32;;;;;;;12.35;7.22;;;;;;;13.28;84.08;100339.34;5144799;27;20368;-73
2022/05/01 00:19:58;;;;;;;9.13;6.80;;;;;;;13.30;84.54;100332.88;5126849;27;20068;-73
2022/05/01 00:22:23;;;;;;;11.90;7.32;;;;;;;13.25;84.67;100331.72;5144503;27;20031;-73
2022/05/01 00:24:48;;;;;;;15.07;7.90;;;;;;;13.25;84.37;100342.34;5127076;27;20027;-73
2022/05/01 00:27:14;;;;;;;9.60;7.07;;;;;;;13.32;83.98;100346.84;5126415;27;20083;-73
2022/05/01 00:29:40;;;;;;;13.77;7.43;;;;;;;13.32;83.43;100352.16;5144621;27;20050;-73
2022/05/01 00:32:06;;;;;;;11.30;7.35;;;;;;;13.23;83.53;100342.50;5144683;27;20041;-73
2022/05/01 00:37:15;;;;;;;15.77;8.38;;;;;;;13.26;83.73;100358.13;5144313;27;20038;-73
2022/05/01 00:39:41;;;;;;;14.80;7.60;;;;;;;13.32;83.22;100356.66;5112906;27;20381;-74
2022/05/01 00:42:06;;;;;;;18.20;7.30;;;;;;;13.42;81.93;100338.69;5144520;27;20027;-74
2022/05/01 00:44:32;;;;;;;11.77;7.97;;;;;;;13.45;82.34;100348.19;5126015;27;20031;-73
2022/05/01 00:46:59;;;;;;;11.85;7.85;;;;;;;13.36;82.58;100366.78;5144530;27;20340;-73
2022/05/01 00:49:27;;;;;;;13.82;8.07;;;;;;;13.42;82.50;100349.34;5144456;27;20194;-73
2022/05/01 00:51:55;;;;;;;12.43;8.02;;;;;;;13.64;81.92;100377.16;5112696;27;20110;-73
2022/05/01 00:54:26;;;;;;;14.00;8.07;;;;;;;13.60;82.09;100366.00;5144328;27;20098;-73
2022/05/01 00:56:54;;;;;;;15.57;8.43;;;;;;;13.63;82.10;100363.00;5144107;27;20239;-74
2022/05/01 00:59:20;;;;;;;12.60;7.97;;;;;;;13.89;80.88;100372.66;5112622;27;20106;-73
2022/05/01 01:01:48;;;;;;;13.15;7.82;;;;;;;13.95;80.67;100370.13;5144050;27;20042;-74
2022/05/01 01:04:13;;;;;;;12.93;7.20;;;;;;;13.88;80.64;100370.97;5144288;27;20062;-74
2022/05/01 01:06:41;;;;;;;9.95;6.68;;;;;;;13.79;80.50;100361.34;5125693;27;20046;-73
2022/05/01 01:09:07;;;;;;;12.95;7.07;;;;;;;13.94;79.96;100371.13;5144052;27;20039;-74
2022/05/01 01:11:33;;;;;;;15.13;6.80;;;;;;;14.07;79.03;100354.66;5143638;27;20062;-73
2022/05/01 01:13:59;;;;;;;10.52;6.95;;;;;;;14.01;79.04;100348.16;5144177;27;20038;-73
2022/05/01 01:16:25;;;;;;;13.13;7.35;;;;;;;13.77;80.19;100340.22;5143707;27;20041;-73
2022/05/01 01:18:51;;;;;;;13.18;7.72;;;;;;;13.57;81.45;100345.06;5143715;27;20239;-74
2022/05/01 01:21:18;;;;;;;9.57;7.15;;;;;;;13.42;82.23;100336.03;5143609;27;20035;-73
2022/05/01 01:23:44;;;;;;;11.45;7.50;;;;;;;13.34;83.10;100338.69;5143692;27;20042;-73
2022/05/01 01:26:12;;;;;;;11.30;7.75;;;;;;;13.18;83.30;100328.88;5124711;27;20398;-73
2022/05/01 01:28:41;;;;;;;18.63;8.00;;;;;;;12.94;84.91;100323.50;5143360;27;20057;-73
2022/05/01 01:33:55;;;;;;;13.57;8.77;;;;;;;12.44;85.97;100303.91;5139761;27;20409;-73
2022/05/01 01:36:22;;;;;;;15.38;8.60;;;;;;;12.31;87.40;100308.81;5138666;27;20035;-73
2022/05/01 01:38:49;;;;;;;11.30;7.70;;;;;;;12.38;87.75;100322.28;5122150;27;20089;-73
2022/05/01 01:41:21;;;;;;;11.43;7.55;;;;;;;12.39;87.56;100324.78;5142144;27;20082;-74
2022/05/01 01:43:48;;;;;;;16.42;7.78;;;;;;;12.60;85.80;100324.41;5121896;27;20035;-73
2022/05/01 01:46:13;;;;;;;9.93;6.85;;;;;;;12.74;84.51;100326.44;5137941;27;20181;-73
2022/05/01 01:48:39;;;;;;;12.23;7.20;;;;;;;12.68;84.67;100324.44;5119543;27;20035;-73
2022/05/01 01:51:06;;;;;;;14.20;6.95;;;;;;;12.65;84.60;100303.50;5138713;27;20039;-73
2022/05/01 01:53:34;;;;;;;11.02;6.93;;;;;;;12.76;84.22;100318.31;5137995;27;20034;-73
2022/05/01 01:56:00;;;;;;;12.77;6.57;;;;;;;12.72;83.40;100312.47;5139036;27;20035;-73
2022/05/01 01:58:28;;;;;;;13.13;7.30;;;;;;;12.71;83.98;100312.63;5138044;27;20098;-74
2022/05/01 02:00:54;;;;;;;11.43;5.80;;;;;;;12.65;83.80;100303.50;5119413;28;20217;-73
2022/05/01 02:03:20;;;;;;;14.00;7.10;;;;;;;12.82;82.36;100301.72;5121452;27;20027;-73
2022/05/01 02:05:49;;;;;;;10.05;5.82;;;;;;;12.76;82.35;100302.34;5142019;27;20099;-73
2022/05/01 02:08:16;;;;;;;13.88;8.05;;;;;;;12.66;83.41;100301.66;5120542;28;20090;-73
2022/05/01 02:10:41;;;;;;;10.25;6.00;;;;;;;12.64;83.42;100291.19;5120785;28;20019;-73
2022/05/01 02:13:07;;;;;;;13.93;6.32;;;;;;;12.66;83.11;100297.19;5120262;28;20313;-73
2022/05/01 02:15:35;;;;;;;9.50;6.20;;;;;;;12.87;83.07;100299.41;5137289;28;20080;-73
2022/05/01 02:18:02;;;;;;;13.25;5.80;;;;;;;12.88;82.40;100282.44;5123623;28;20302;-73
2022/05/01 02:21:33;;;;;;;11.25;5.88;;;;;;;12.89;82.59;100308.03;5140550;28;20031;-74
2022/05/01 02:23:15;;;;;;;15.30;7.15;;;;;;;12.74;82.67;100283.09;5136316;28;20031;-74
2022/05/01 02:25:41;;;;;;;11.60;7.20;;;;;;;12.92;81.82;100312.19;5138902;28;20038;-74
2022/05/01 02:28:06;;;;;;;12.73;7.50;;;;;;;13.10;80.50;100311.06;5119024;28;20027;-73
2022/05/01 02:30:32;;;;;;;11.93;7.47;;;;;;;12.99;81.10;100310.53;5134938;28;20035;-73
2022/05/01 02:32:57;;;;;;;11.95;7.90;;;;;;;13.11;80.68;100319.88;5137066;28;20046;-74
2022/05/01 02:35:23;;;;;;;14.63;8.52;;;;;;;13.15;80.47;100323.03;5138949;28;20027;-74
2022/05/01 02:37:48;;;;;;;14.70;8.38;;;;;;;13.09;79.69;100293.44;5139498;27;20036;-73
2022/05/01 02:40:14;;;;;;;16.63;9.13;;;;;;;13.13;80.18;100307.25;5141362;27;20023;-73
2022/05/01 02:42:39;;;;;;;15.07;8.70;;;;;;;12.90;81.70;100316.84;5142783;27;20035;-73
2022/05/01 02:45:06;;;;;;;15.48;9.10;;;;;;;13.09;81.03;100313.88;5141180;27;20058;-73
2022/05/01 02:47:31;;;;;;;15.07;8.68;;;;;;;13.15;80.19;100315.06;5141891;27;20083;-74
2022/05/01 02:49:57;;;;;;;15.02;8.80;;;;;;;13.30;79.99;100322.25;5141149;27;20030;-73
2022/05/01 02:52:22;;;;;;;12.30;8.15;;;;;;;13.32;79.70;100332.72;5141794;27;20124;-73
2022/05/01 02:54:48;;;;;;;17.00;8.27;;;;;;;13.23;80.15;100334.53;5141790;27;20102;-74
2022/05/01 02:57:14;;;;;;;15.02;8.20;;;;;;;13.31;79.35;100333.72;5141275;27;20052;-73
2022/05/01 02:59:39;;;;;;;14.88;8.50;;;;;;;13.22;79.75;100332.88;5142122;27;20034;-74
2022/05/01 03:02:05;;;;;;;12.15;7.80;;;;;;;13.32;78.86;100335.38;5122201;27;20078;-73
2022/05/01 03:04:30;;;;;;;14.88;8.38;;;;;;;13.04;79.25;100297.59;5140918;27;20042;-73
2022/05/01 03:06:56;;;;;;;12.60;7.97;;;;;;;13.17;79.27;100334.38;5142364;27;20225;-73
2022/05/01 03:09:22;;;;;;;16.27;7.72;;;;;;;13.09;79.99;100321.84;5143043;27;20038;-74
2022/05/01 03:11:47;;;;;;;14.07;8.20;;;;;;;13.23;78.92;100323.06;5145030;27;20090;-73
2022/05/01 03:14:13;;;;;;;12.38;7.82;;;;;;;13.20;78.79;100310.09;5143435;27;20224;-73
2022/05/01 03:16:38;;;;;;;16.70;7.85;;;;;;;13.24;79.02;100324.72;5139090;27;20035;-74
2022/05/01 03:24:31;;;;;;;16.08;8.27;;;;;;;13.23;78.74;100336.38;5138709;27;20276;-73
2022/05/01 03:26:57;;;;;;;16.98;8.93;;;;;;;13.22;78.60;100337.34;5142000;27;20031;-73
2022/05/01 03:29:23;;;;;;;14.65;7.53;;;;;;;13.16;79.78;100324.69;5122046;27;20325;-73
2022/05/01 03:31:50;;;;;;;16.33;8.90;;;;;;;13.12;79.81;100329.50;5139846;27;20027;-73
2022/05/01 03:34:17;;;;;;;16.20;9.95;;;;;;;13.23;78.90;100321.25;5141450;27;20031;-73
2022/05/01 03:36:44;;;;;;;21.80;12.75;;;;;;;13.05;79.88;100305.41;5140572;27;20065;-73
2022/05/01 03:39:10;;;;;;;26.85;14.82;;;;;;;13.35;79.11;100329.72;5141097;27;20019;-73
2022/05/01 03:41:36;;;;;;;21.23;13.80;;;;;;;13.35;78.75;100316.41;5125932;27;20027;-73
2022/05/01 03:44:01;;;;;;;24.40;12.32;;;;;;;13.23;78.34;100329.22;5125051;27;20076;-73
2022/05/01 03:46:27;;;;;;;18.70;11.48;;;;;;;13.21;78.06;100322.41;5122115;27;20225;-73
2022/05/01 03:48:52;;;;;;;20.13;11.52;;;;;;;13.00;79.20;100328.16;5139811;27;20039;-73
2022/05/01 03:51:18;;;;;;;16.40;10.25;;;;;;;12.98;79.22;100340.78;5139621;27;20027;-74
2022/05/01 03:53:45;;;;;;;17.38;11.02;;;;;;;12.52;81.10;100334.16;5139871;27;20031;-74
2022/05/01 03:56:11;;;;;;;16.95;11.43;;;;;;;12.41;82.37;100338.75;5141069;27;20027;-73
2022/05/01 03:58:36;;;;;;;21.40;11.95;;;;;;;12.51;81.74;100346.63;5121333;27;20024;-73
2022/05/01 04:01:02;;;;;;;18.52;11.05;;;;;;;12.41;82.36;100341.41;5120821;27;20051;-74
2022/05/01 04:03:28;;;;;;;21.02;11.63;;;;;;;12.58;81.42;100355.59;5140524;27;20090;-73
2022/05/01 04:05:54;;;;;;;33.00;18.63;;;;;;;12.82;79.74;100346.88;5120881;27;20019;-74
2022/05/01 04:08:19;;;;;;;95.82;47.88;;;;;;;12.97;79.39;100358.56;5139431;27;20225;-74
2022/05/01 04:10:46;;;;;;;45.88;27.58;;;;;;;13.16;78.79;100362.75;5122521;27;20031;-74
2022/05/01 04:13:12;;;;;;;22.52;11.80;;;;;;;13.37;78.03;100364.97;5139264;27;20038;-74
2022/05/01 04:15:39;;;;;;;20.45;11.25;;;;;;;13.51;77.38;100363.47;5141398;27;20075;-75
2022/05/01 04:18:05;;;;;;;25.00;13.75;;;;;;;13.58;77.20;100362.69;5140173;27;20214;-75
2022/05/01 04:20:32;;;;;;;19.48;13.75;;;;;;;13.64;76.76;100356.69;5138760;27;20038;-76
2022/05/01 04:22:59;;;;;;;23.67;13.50;;;;;;;13.67;76.94;100352.88;5140949;27;20027;-73
2022/05/01 04:25:29;;;;;;;14.48;10.73;;;;;;;13.78;76.39;100351.69;5120516;27;20050;-73
2022/05/01 04:28:03;;;;;;;18.00;11.95;;;;;;;13.77;75.85;100326.06;5136332;27;20359;-74
2022/05/01 04:30:31;;;;;;;19.40;11.85;;;;;;;13.91;75.54;100344.84;5140679;27;20031;-74
2022/05/01 04:33:00;;;;;;;20.05;11.77;;;;;;;13.83;76.61;100352.03;5139716;27;20019;-73
2022/05/01 04:35:28;;;;;;;23.67;15.00;;;;;;;13.93;76.71;100350.00;5142944;27;20228;-74
2022/05/01 04:38:05;;;;;;;20.10;16.00;;;;;;;13.68;77.17;100354.53;5143634;27;20317;-74
2022/05/01 04:40:40;;;;;;;27.48;17.00;;;;;;;13.24;80.27;100359.31;5141895;27;20303;-73
2022/05/01 04:43:12;;;;;;;27.60;18.55;;;;;;;13.42;80.09;100363.47;5134831;27;20028;-74
2022/05/01 04:45:40;;;;;;;23.20;15.70;;;;;;;13.55;80.39;100354.19;5124258;27;20070;-74
2022/05/01 04:48:06;;;;;;;19.70;13.40;;;;;;;13.90;78.24;100353.84;5124317;27;20244;-73
2022/05/01 04:50:32;;;;;;;26.30;15.20;;;;;;;14.09;77.45;100354.47;5122993;27;20023;-73
2022/05/01 04:53:00;;;;;;;22.25;16.65;;;;;;;14.18;76.45;100346.28;5127862;27;20078;-73
2022/05/01 04:55:26;;;;;;;21.77;12.65;;;;;;;14.13;76.75;100348.63;5124911;27;20042;-73
2022/05/01 04:57:51;;;;;;;23.83;12.52;;;;;;;14.05;77.24;100364.63;5124397;28;20038;-73
2022/05/01 05:00:20;;;;;;;22.63;15.75;;;;;;;14.35;76.20;100376.38;5124428;28;20400;-73
2022/05/01 05:02:52;;;;;;;24.02;12.35;;;;;;;14.36;75.94;100368.22;5124425;27;20040;-73
2022/05/01 05:05:19;;;;;;;18.98;12.45;;;;;;;14.55;75.45;100366.19;5124487;27;20098;-73
2022/05/01 05:07:46;;;;;;;22.55;12.50;;;;;;;14.65;74.67;100365.00;5124372;27;20039;-74
2022/05/01 05:10:13;;;;;;;27.92;12.55;;;;;;;14.84;74.09;100368.25;5124177;27;20031;-73
2022/05/01 05:12:42;;;;;;;24.10;15.07;;;;;;;15.01;73.01;100346.66;5123946;27;20229;-73
2022/05/01 05:15:10;;;;;;;18.65;11.27;;;;;;;16.00;70.00;100368.13;5124547;28;20032;-73
2022/05/01 05:17:36;;;;;;;21.98;11.73;;;;;;;16.07;68.18;100359.19;5123860;28;20095;-74
2022/05/01 05:20:04;;;;;;;20.17;11.80;;;;;;;16.18;68.43;100373.94;5124209;27;20040;-73
2022/05/01 05:22:30;;;;;;;17.85;11.68;;;;;;;16.49;66.89;100371.09;5122599;27;20053;-73
2022/05/01 05:24:55;;;;;;;24.45;14.00;;;;;;;16.78;66.14;100364.94;5127169;27;20027;-73
2022/05/01 05:27:25;;;;;;;19.63;11.60;;;;;;;16.79;64.76;100332.66;5123714;27;20039;-73
2022/05/01 05:29:51;;;;;;;17.25;11.27;;;;;;;17.32;64.11;100367.19;5119364;28;20026;-74
2022/05/01 05:32:17;;;;;;;23.77;13.50;;;;;;;17.52;62.03;100374.41;5118942;27;20035;-74
2022/05/01 05:34:42;;;;;;;19.27;12.20;;;;;;;17.22;63.29;100365.66;5128242;27;20326;-73
2022/05/01 05:37:08;;;;;;;20.13;13.20;;;;;;;17.39;63.44;100365.41;5143488;27;20035;-73
2022/05/01 05:57:14;;;;;;;14.93;9.98;;;;;;;18.78;56.95;100364.66;5147032;27;20884;-67
2022/05/01 05:59:39;;;;;;;19.25;11.02;;;;;;;19.15;56.27;100384.78;5140605;28;20034;-67
2022/05/01 06:02:05;;;;;;;15.70;9.50;;;;;;;19.66;55.67;100389.66;5140058;28;20035;-67
2022/05/01 06:04:30;;;;;;;14.77;10.15;;;;;;;19.68;54.64;100388.44;5140362;28;20012;-67
2022/05/01 06:06:56;;;;;;;13.30;9.35;;;;;;;19.62;54.11;100394.63;5140528;28;20355;-67
2022/05/01 06:09:21;;;;;;;14.35;9.38;;;;;;;19.91;53.96;100392.59;5140164;28;20334;-67
2022/05/01 06:11:47;;;;;;;12.70;8.85;;;;;;;19.84;53.51;100391.78;5139981;28;20312;-67
2022/05/01 06:14:12;;;;;;;12.98;7.65;;;;;;;19.99;52.45;100390.53;5140235;28;20039;-67
2022/05/01 06:16:38;;;;;;;11.15;7.97;;;;;;;20.04;52.40;100384.53;5138990;28;20042;-67
2022/05/01 06:19:04;;;;;;;12.77;7.50;;;;;;;20.30;51.83;100394.44;5140438;28;20019;-67
2022/05/01 06:21:30;;;;;;;12.00;8.15;;;;;;;20.29;51.96;100390.09;5121758;28;20324;-67
2022/05/01 06:23:55;;;;;;;12.00;8.18;;;;;;;20.47;50.84;100397.53;5139945;28;20052;-67
2022/05/01 06:26:21;;;;;;;13.60;6.47;;;;;;;20.80;49.87;100383.97;5121405;28;20027;-67
2022/05/01 06:28:47;;;;;;;11.65;7.70;;;;;;;21.04;49.40;100391.34;5140002;28;20035;-67
2022/05/01 06:31:14;;;;;;;13.27;7.85;;;;;;;21.23;48.41;100381.53;5139876;28;20023;-67
2022/05/01 06:33:40;;;;;;;10.48;7.38;;;;;;;21.62;47.74;100386.66;5140015;28;20019;-67
2022/05/01 06:36:06;;;;;;;11.52;6.95;;;;;;;21.50;47.65;100385.72;5139766;28;20037;-67
2022/05/01 06:38:31;;;;;;;9.60;6.40;;;;;;;21.19;48.39;100378.44;5139692;28;20060;-67
2022/05/01 06:40:57;;;;;;;10.43;6.80;;;;;;;21.60;46.76;100360.97;5136222;27;20225;-67
2022/05/01 06:43:22;;;;;;;10.20;6.57;;;;;;;21.96;45.55;100385.38;5136622;28;20031;-67
2022/05/01 06:45:48;;;;;;;10.15;5.65;;;;;;;22.16;45.32;100387.94;5116365;28;20035;-67
2022/05/01 06:48:14;;;;;;;10.85;6.32;;;;;;;22.36;44.84;100392.31;5136407;28;20035;-67
2022/05/01 06:50:39;;;;;;;10.65;7.22;;;;;;;22.06;46.52;100389.50;5135266;27;20063;-66
2022/05/01 06:53:06;;;;;;;10.18;6.53;;;;;;;22.35;45.05;100390.66;5136320;27;20024;-67
2022/05/01 06:55:31;;;;;;;10.82;6.47;;;;;;;22.57;44.89;100384.59;5134702;27;20062;-67
2022/05/01 06:57:57;;;;;;;8.10;6.00;;;;;;;22.58;44.08;100385.41;5122618;27;20027;-67
2022/05/01 07:00:23;;;;;;;10.90;5.93;;;;;;;22.87;43.75;100381.16;5124198;28;20178;-66
2022/05/01 07:02:52;;;;;;;12.57;5.60;;;;;;;23.22;42.36;100382.19;5122428;28;20806;-67
2022/05/01 07:05:21;;;;;;;8.23;5.30;;;;;;;23.42;41.60;100375.66;5121049;28;20374;-67
2022/05/01 07:07:49;;;;;;;11.40;5.40;;;;;;;23.70;41.67;100375.03;5121660;28;20099;-67
2022/05/01 07:10:16;;;;;;;8.15;4.78;;;;;;;23.95;40.26;100381.09;5102874;28;20043;-67
2022/05/01 07:12:41;;;;;;;9.63;6.05;;;;;;;24.22;39.88;100373.34;5121525;28;20178;-67
2022/05/01 07:15:07;;;;;;;11.25;6.10;;;;;;;24.04;39.95;100377.00;5120624;28;20088;-67
2022/05/01 07:17:33;;;;;;;9.68;5.72;;;;;;;24.20;39.47;100373.56;5121766;28;20095;-67
2022/05/01 07:19:59;;;;;;;9.77;4.55;;;;;;;24.45;38.05;100373.34;5120998;28;20047;-67
2022/05/01 07:22:25;;;;;;;13.95;5.50;;;;;;;24.48;38.69;100366.63;5122044;28;20061;-67
2022/05/01 07:24:50;;;;;;;7.80;5.13;;;;;;;23.92;39.68;100372.59;5120789;28;20039;-67
2022/05/01 07:27:16;;;;;;;6.40;5.05;;;;;;;24.35;38.48;100370.41;5120805;28;20031;-67
2022/05/01 07:29:41;;;;;;;5.50;4.28;;;;;;;23.98;39.71;100372.53;5121397;28;20044;-67
2022/05/01 07:32:07;;;;;;;9.80;4.38;;;;;;;24.03;38.59;100371.81;5120644;28;20069;-67
2022/05/01 07:34:32;;;;;;;7.25;4.38;;;;;;;24.03;38.61;100359.13;5121748;28;20027;-67
2022/05/01 07:36:58;;;;;;;10.30;4.90;;;;;;;24.07;38.17;100370.28;5102032;28;20031;-68
2022/05/01 07:39:23;;;;;;;7.57;4.43;;;;;;;24.17;37.85;100373.22;5102424;28;20035;-67
2022/05/01 07:41:48;;;;;;;10.70;4.88;;;;;;;24.41;37.37;100366.75;5121227;28;20031;-67
2022/05/01 07:44:14;;;;;;;7.88;4.47;;;;;;;23.69;38.45;100376.94;5120634;28;20028;-67
2022/05/01 07:46:40;;;;;;;6.82;4.28;;;;;;;23.62;37.37;100378.91;5119670;27;20044;-67
2022/05/01 07:49:07;;;;;;;6.35;4.20;;;;;;;23.54;36.75;100377.38;5120938;28;20054;-67
2022/05/01 07:51:32;;;;;;;10.02;3.42;;;;;;;23.73;37.01;100380.00;5120492;28;20034;-67
2022/05/01 07:53:58;;;;;;;5.78;3.35;;;;;;;23.59;36.10;100387.47;5121232;28;20023;-67
2022/05/01 07:56:28;;;;;;;6.05;3.10;;;;;;;23.87;35.42;100384.94;5098079;28;20357;-67
2022/05/01 07:58:54;;;;;;;4.53;3.10;;;;;;;23.98;34.57;100377.94;5100029;28;20099;-67
2022/05/01 08:01:20;;;;;;;4.53;3.05;;;;;;;24.12;33.63;100381.22;5101133;28;20103;-67
2022/05/01 08:06:30;;;;;;;7.28;2.75;;;;;;;23.38;31.96;100371.78;5103999;28;20381;-67
2022/05/01 08:08:55;;;;;;;5.30;3.25;;;;;;;22.77;32.80;100375.44;5102802;28;20032;-67
2022/05/01 08:11:21;;;;;;;5.70;2.72;;;;;;;22.55;33.00;100372.38;5103561;28;20032;-67
2022/05/01 08:13:47;;;;;;;4.13;3.10;;;;;;;22.79;34.68;100376.03;5103521;28;20129;-67
2022/05/01 08:16:13;;;;;;;4.40;2.42;;;;;;;23.34;32.02;100360.59;5103147;28;20036;-67
2022/05/01 08:21:23;;;;;;;5.55;2.83;;;;;;;23.90;31.90;100362.00;5100236;28;20050;-67
2022/05/01 08:23:49;;;;;;;6.32;3.10;;;;;;;24.09;32.38;100357.34;5103541;28;20027;-67
2022/05/01 08:26:17;;;;;;;5.65;3.00;;;;;;;24.70;32.37;100356.81;5103630;28;20099;-67
2022/05/01 08:28:43;;;;;;;3.70;2.70;;;;;;;25.00;31.84;100353.94;5103460;28;20064;-67
2022/05/01 08:31:09;;;;;;;3.40;1.80;;;;;;;24.92;28.45;100356.16;5102273;28;20028;-67
2022/05/01 08:33:35;;;;;;;2.30;2.00;;;;;;;24.94;28.41;100354.84;5103191;28;20347;-67
2022/05/01 08:36:03;;;;;;;2.50;1.85;;;;;;;24.18;27.42;100342.41;5102849;28;20066;-67
2022/05/01 08:38:29;;;;;;;4.47;2.28;;;;;;;23.70;30.39;100342.59;5103517;28;20032;-67
2022/05/01 08:40:55;;;;;;;3.28;1.98;;;;;;;23.95;28.79;100345.13;5103264;28;20054;-67
2022/05/01 08:43:22;;;;;;;5.40;2.60;;;;;;;23.27;32.70;100340.13;5101816;28;20028;-67
2022/05/01 08:46:00;;;;;;;3.60;2.33;;;;;;;23.62;28.95;100327.53;5102713;28;20040;-67
2022/05/01 08:48:34;;;;;;;2.20;1.65;;;;;;;23.47;28.83;100333.38;5103240;28;20027;-67
2022/05/01 08:51:01;;;;;;;5.10;1.88;;;;;;;23.64;28.57;100336.25;5102980;28;20036;-67
2022/05/01 08:53:29;;;;;;;5.75;2.10;;;;;;;23.87;29.24;100327.31;5102989;28;20305;-67
2022/05/01 08:55:55;;;;;;;3.45;2.55;;;;;;;24.10;31.98;100324.66;5112139;28;20037;-67
2022/05/01 08:58:21;;;;;;;4.55;2.00;;;;;;;24.05;29.06;100327.22;5123363;28;20232;-67
2022/05/01 09:00:49;;;;;;;5.90;2.17;;;;;;;23.45;30.17;100326.53;5123342;28;20114;-67
2022/05/01 09:03:16;;;;;;;3.70;2.00;;;;;;;23.21;31.54;100325.66;5123510;28;20032;-67
2022/05/01 09:05:41;;;;;;;4.57;1.88;;;;;;;22.82;30.41;100327.03;5122974;28;20062;-67
2022/05/01 09:08:07;;;;;;;4.47;2.20;;;;;;;22.58;31.51;100324.16;5123155;28;20027;-67
2022/05/01 09:10:33;;;;;;;3.72;2.35;;;;;;;22.15;31.89;100323.44;5104308;28;20044;-67
2022/05/01 09:12:59;;;;;;;3.22;2.42;;;;;;;22.43;30.53;100295.91;5123354;28;20051;-67
2022/05/01 09:15:32;;;;;;;5.35;2.30;;;;;;;22.96;30.75;100312.31;5122414;28;20031;-67
2022/05/01 09:18:03;;;;;;;7.25;2.25;;;;;;;23.32;29.62;100305.97;5123063;28;20035;-67
2022/05/01 09:20:28;;;;;;;5.18;2.08;;;;;;;22.97;30.52;100297.75;5104200;28;20072;-67
2022/05/01 09:22:55;;;;;;;3.05;2.08;;;;;;;22.83;31.79;100301.66;5123009;28;20043;-67
2022/05/01 09:25:23;;;;;;;5.22;2.10;;;;;;;22.26;32.06;100295.72;5122862;28;20039;-66
2022/05/01 09:27:49;;;;;;;3.08;2.10;;;;;;;21.87;33.52;100303.13;5122703;28;20047;-66
2022/05/01 09:30:20;;;;;;;3.50;2.35;;;;;;;21.67;31.49;100300.59;5122863;28;20035;-67
2022/05/01 09:32:46;;;;;;;3.10;1.95;;;;;;;22.18;32.44;100285.22;5122621;28;20055;-67
2022/05/01 09:35:15;;;;;;;5.22;2.15;;;;;;;22.66;32.14;100285.25;5122417;28;20355;-67
2022/05/01 09:37:41;;;;;;;5.78;2.22;;;;;;;22.65;32.07;100282.78;5122747;28;20111;-67
2022/05/01 09:40:07;;;;;;;3.75;2.15;;;;;;;22.69;31.98;100278.56;5122502;28;20048;-67
2022/05/01 09:42:36;;;;;;;6.45;2.05;;;;;;;22.71;32.83;100260.28;5122553;28;20367;-67
2022/05/01 09:45:32;;;;;;;2.85;1.90;;;;;;;22.10;33.60;100275.56;5122244;28;20047;-67
2022/05/01 09:47:57;;;;;;;3.63;1.95;;;;;;;21.63;32.66;100277.81;5121835;28;20032;-67
2022/05/01 09:50:43;;;;;;;5.85;2.38;;;;;;;21.03;33.11;100258.59;5122186;28;20036;-67
2022/05/01 09:53:09;;;;;;;3.97;1.65;;;;;;;20.75;34.25;100268.88;5100371;28;20028;-67
2022/05/01 09:55:35;;;;;;;4.13;1.67;;;;;;;20.28;33.06;100264.72;5122101;28;20047;-66
2022/05/01 09:58:11;;;;;;;5.70;2.22;;;;;;;20.40;32.62;100260.38;5122481;28;20034;-67
2022/05/01 10:00:45;;;;;;;3.90;1.98;;;;;;;20.89;32.21;100248.94;5122478;28;20214;-67
2022/05/01 10:03:22;;;;;;;6.35;1.95;;;;;;;21.07;33.19;100255.47;5118446;28;20035;-67
2022/05/01 10:05:49;;;;;;;1.92;1.45;;;;;;;21.21;33.86;100247.06;5117126;28;20041;-67
2022/05/01 10:08:17;;;;;;;3.13;1.92;;;;;;;20.99;34.16;100243.91;5116892;28;20046;-67
2022/05/01 10:10:44;;;;;;;7.03;2.25;;;;;;;20.66;33.51;100249.47;5118155;28;20035;-66
2022/05/01 10:13:11;;;;;;;2.97;1.92;;;;;;;20.51;33.10;100246.25;5116761;28;20023;-66
2022/05/01 10:15:37;;;;;;;3.78;2.15;;;;;;;20.77;33.02;100231.81;5117511;28;20039;-67
2022/05/01 10:18:03;;;;;;;3.15;1.80;;;;;;;20.36;33.25;100230.34;5116465;28;20027;-66
2022/05/01 10:20:29;;;;;;;5.22;1.77;;;;;;;20.39;33.44;100240.72;5118106;28;20036;-67
2022/05/01 10:22:55;;;;;;;3.67;1.80;;;;;;;20.36;33.06;100232.22;5118221;28;20069;-67
2022/05/01 10:25:21;;;;;;;4.15;1.67;;;;;;;20.52;33.76;100220.16;5117850;28;20032;-67
2022/05/01 10:27:56;;;;;;;4.20;1.98;;;;;;;20.90;32.85;100215.59;5116514;28;20039;-67
2022/05/01 10:33:31;;;;;;;4.35;1.77;;;;;;;21.12;34.12;100215.25;5120049;28;20034;-67
2022/05/01 10:36:00;;;;;;;3.55;1.60;;;;;;;20.89;33.81;100213.13;5096460;28;20095;-67
2022/05/01 10:38:40;;;;;;;4.53;2.22;;;;;;;20.78;34.37;100209.25;5122139;28;20031;-67
2022/05/01 10:41:07;;;;;;;4.63;1.92;;;;;;;20.63;34.43;100206.84;5121000;28;20025;-66
2022/05/01 10:43:36;;;;;;;4.05;1.92;;;;;;;20.22;35.58;100209.09;5120675;28;20032;-66
2022/05/01 10:46:24;;;;;;;5.22;1.77;;;;;;;20.37;34.41;100197.03;5118442;28;20482;-67
2022/05/01 10:48:50;;;;;;;3.67;1.92;;;;;;;20.59;34.00;100197.56;5117165;28;20229;-66
2022/05/01 10:51:29;;;;;;;7.10;2.00;;;;;;;20.63;35.41;100189.88;5121435;28;20042;-67
2022/05/01 10:54:15;;;;;;;3.85;1.88;;;;;;;21.01;32.18;100187.16;5102836;28;20043;-67
2022/05/01 10:56:52;;;;;;;2.28;1.55;;;;;;;21.16;33.63;100182.28;5120286;28;20051;-67
2022/05/01 10:59:29;;;;;;;3.25;1.50;;;;;;;20.96;34.87;100181.59;5120874;28;20035;-67
2022/05/01 11:02:00;;;;;;;5.20;2.00;;;;;;;20.81;33.12;100175.72;5120023;28;20530;-67
2022/05/01 11:04:39;;;;;;;4.15;1.90;;;;;;;20.84;32.13;100168.03;5101657;28;20024;-67
2022/05/01 11:07:05;;;;;;;3.53;1.90;;;;;;;20.95;33.80;100178.09;5117558;28;20050;-67
2022/05/01 11:09:35;;;;;;;3.95;1.55;;;;;;;20.51;30.89;100178.16;5121114;28;20209;-67
2022/05/01 11:12:01;;;;;;;3.10;1.95;;;;;;;20.68;32.34;100169.34;5120829;28;20038;-67
2022/05/01 11:14:57;;;;;;;4.35;2.30;;;;;;;20.75;31.57;100174.69;5119054;28;20015;-67
2022/05/01 11:17:39;;;;;;;9.68;2.60;;;;;;;20.93;31.06;100164.03;5107548;28;20042;-67
2022/05/01 11:20:06;;;;;;;1.65;1.40;;;;;;;21.19;32.76;100159.47;5101752;28;20039;-67
2022/05/01 11:22:32;;;;;;;5.50;1.95;;;;;;;21.23;30.39;100164.22;5119452;28;20261;-67
2022/05/01 11:24:57;;;;;;;2.67;1.73;;;;;;;21.22;30.64;100149.09;5119726;28;20045;-67
2022/05/01 11:27:23;;;;;;;4.90;1.70;;;;;;;20.93;30.68;100155.94;5121149;28;20035;-66
2022/05/01 11:30:07;;;;;;;3.38;2.03;;;;;;;21.15;31.76;100160.94;5119303;28;20084;-66
2022/05/01 11:32:50;;;;;;;2.53;1.45;;;;;;;21.24;30.83;100148.88;5118091;28;20051;-67
2022/05/01 11:35:16;;;;;;;3.28;1.58;;;;;;;20.93;32.84;100150.56;5117116;28;20039;-67
2022/05/01 11:38:06;;;;;;;4.45;1.60;;;;;;;20.89;30.78;100151.22;5120729;28;20023;-67
2022/05/01 11:40:32;;;;;;;3.13;1.95;;;;;;;21.21;31.66;100142.03;5119199;28;20035;-67
2022/05/01 11:43:18;;;;;;;2.67;1.92;;;;;;;21.17;32.22;100140.00;5119556;28;20040;-66
2022/05/01 11:45:45;;;;;;;2.88;1.48;;;;;;;21.49;30.61;100133.50;5119387;28;20050;-67
2022/05/01 11:48:16;;;;;;;9.57;4.32;;;;;;;21.57;33.34;100133.19;5119025;28;20396;-66
2022/05/01 11:50:43;;;;;;;5.57;1.77;;;;;;;21.19;32.71;100132.53;5119070;28;20046;-67
2022/05/01 11:53:19;;;;;;;4.25;1.70;;;;;;;20.75;34.69;100139.72;5120323;28;20027;-67
2022/05/01 12:04:01;;;;;;;;;;;;;;;20.58;32.57;100138.59;5117607;28;20039;-67
2022/05/01 12:06:28;;;;;;;3.53;1.80;;;;;;;20.98;31.01;100126.50;5120224;28;19930;-67